Time;durP1;ratioP1;P1;durP2;ratioP2;P2;SDS_P1;SDS_P2;PMS_P1;PMS_P2;Temp;Humidity;BMP_temperature;BMP_pressure;BME280_temperature;BME280_humidity;BME280_pressure;Samples;Min_cycle;Max_cycle;Signal;HPM_P1;HPM_P2
2022/11/24 00:01:07;;;;;;;1.90;1.43;;;;;;;7.13;100.00;98184.22;5113202;28;20220;-62
2022/11/24 00:03:35;;;;;;;0.47;0.47;;;;;;;7.01;100.00;98179.09;5112393;28;20221;-62
2022/11/24 00:06:06;;;;;;;0.10;0.10;;;;;;;6.99;100.00;98180.91;5112741;28;20229;-62
2022/11/24 00:08:33;;;;;;;0.77;0.60;;;;;;;7.03;100.00;98179.75;5112781;28;20224;-62
2022/11/24 00:11:05;;;;;;;0.20;0.20;;;;;;;7.08;100.00;98181.19;5112687;28;20193;-62
2022/11/24 00:13:32;;;;;;;0.60;0.60;;;;;;;7.00;100.00;98184.25;5112935;28;20225;-62
2022/11/24 00:16:07;;;;;;;0.00;0.00;;;;;;;6.96;100.00;98188.75;5112619;28;20634;-62
2022/11/24 00:18:34;;;;;;;0.33;0.33;;;;;;;6.97;100.00;98185.28;5112887;28;20709;-62
2022/11/24 00:21:00;;;;;;;2.20;0.70;;;;;;;7.03;100.00;98181.50;5112539;28;20197;-62
2022/11/24 00:23:27;;;;;;;0.47;0.43;;;;;;;7.07;100.00;98184.63;5112554;28;20221;-62
2022/11/24 00:25:54;;;;;;;0.23;0.23;;;;;;;7.11;100.00;98180.97;5112312;28;20224;-60
2022/11/24 00:28:21;;;;;;;0.63;0.63;;;;;;;7.13;100.00;98179.13;5112575;28;20224;-59
2022/11/24 00:30:47;;;;;;;0.23;0.23;;;;;;;7.10;100.00;98175.06;5112609;28;20212;-60
2022/11/24 00:33:15;;;;;;;0.87;0.87;;;;;;;7.10;100.00;98181.84;5112232;27;20649;-59
2022/11/24 00:35:42;;;;;;;0.33;0.33;;;;;;;7.02;100.00;98173.06;5112360;28;20197;-62
2022/11/24 00:38:09;;;;;;;2.33;0.83;;;;;;;7.05;100.00;98176.31;5112323;28;20213;-60
2022/11/24 00:40:36;;;;;;;0.60;0.60;;;;;;;7.08;100.00;98173.56;5112235;28;20209;-62
2022/11/24 00:43:02;;;;;;;0.67;0.50;;;;;;;7.12;100.00;98182.56;5111940;28;20224;-62
2022/11/24 00:45:29;;;;;;;0.97;0.53;;;;;;;7.18;100.00;98187.19;5111917;28;20232;-60
2022/11/24 00:47:56;;;;;;;0.30;0.30;;;;;;;7.13;100.00;98185.00;5111890;27;20236;-59
2022/11/24 00:50:24;;;;;;;0.50;0.50;;;;;;;7.18;100.00;98192.28;5111860;28;20193;-60
2022/11/24 00:52:51;;;;;;;0.40;0.40;;;;;;;7.24;100.00;98191.84;5111751;28;20197;-60
2022/11/24 00:55:17;;;;;;;0.67;0.67;;;;;;;7.12;100.00;98192.72;5111779;28;20271;-63
2022/11/24 00:57:44;;;;;;;1.80;1.07;;;;;;;7.02;100.00;98188.31;5111533;28;20197;-59
2022/11/24 01:00:12;;;;;;;1.27;0.97;;;;;;;6.95;100.00;98192.25;5111680;28;20577;-59
2022/11/24 01:02:39;;;;;;;0.30;0.30;;;;;;;7.06;100.00;98185.56;5111652;28;20193;-62
2022/11/24 01:05:06;;;;;;;0.30;0.30;;;;;;;7.14;100.00;98190.91;5111624;28;20213;-60
2022/11/24 01:07:35;;;;;;;0.53;0.53;;;;;;;7.21;100.00;98192.06;5111540;28;20606;-63
2022/11/24 01:10:01;;;;;;;0.20;0.20;;;;;;;7.16;100.00;98194.97;5111526;27;20217;-62
2022/11/24 01:12:28;;;;;;;0.30;0.30;;;;;;;7.22;100.00;98191.97;5111258;28;20200;-59
2022/11/24 01:14:55;;;;;;;0.20;0.20;;;;;;;7.17;100.00;98195.75;5110646;28;20217;-62
2022/11/24 01:17:22;;;;;;;0.20;0.10;;;;;;;7.24;100.00;98202.00;5111038;28;20201;-59
2022/11/24 01:19:49;;;;;;;0.33;0.33;;;;;;;7.31;100.00;98205.75;5111351;27;20213;-60
2022/11/24 01:22:16;;;;;;;0.50;0.50;;;;;;;7.35;100.00;98211.41;5111156;28;20207;-60
2022/11/24 01:24:44;;;;;;;0.13;0.13;;;;;;;7.34;100.00;98208.06;5111199;28;20225;-62
2022/11/24 01:27:11;;;;;;;0.40;0.40;;;;;;;7.32;100.00;98207.34;5110949;28;20236;-63
2022/11/24 01:29:38;;;;;;;0.50;0.50;;;;;;;7.10;100.00;98209.81;5111242;28;20738;-59
2022/11/24 01:32:05;;;;;;;1.70;0.67;;;;;;;7.13;100.00;98207.88;5111162;28;20279;-63
2022/11/24 01:34:31;;;;;;;0.43;0.43;;;;;;;7.17;100.00;98209.28;5110953;28;20333;-60
2022/11/24 01:36:59;;;;;;;0.43;0.43;;;;;;;7.21;100.00;98203.06;5110833;28;20193;-62
2022/11/24 01:39:25;;;;;;;0.77;0.60;;;;;;;7.12;100.00;98202.91;5110989;28;20217;-63
2022/11/24 01:41:54;;;;;;;0.43;0.43;;;;;;;7.16;100.00;98204.31;5110928;27;20193;-63
2022/11/24 01:44:23;;;;;;;0.60;0.60;;;;;;;7.17;100.00;98206.72;5110843;28;20602;-63
2022/11/24 01:46:55;;;;;;;0.30;0.30;;;;;;;7.26;100.00;98202.72;5110764;28;20229;-60
2022/11/24 01:49:25;;;;;;;1.53;0.57;;;;;;;7.20;100.00;98200.63;5110841;28;20607;-59
2022/11/24 01:52:00;;;;;;;2.00;0.23;;;;;;;7.15;100.00;98200.94;5110782;28;20254;-59
2022/11/24 01:54:31;;;;;;;0.30;0.30;;;;;;;7.00;100.00;98199.50;5111105;28;20221;-59
2022/11/24 01:57:06;;;;;;;0.80;0.60;;;;;;;6.89;100.00;98197.72;5110856;28;20190;-59
2022/11/24 01:59:33;;;;;;;1.43;1.27;;;;;;;6.86;100.00;98204.78;5110910;28;20232;-63
2022/11/24 02:02:00;;;;;;;0.30;0.30;;;;;;;6.80;100.00;98208.56;5110834;28;20658;-60
2022/11/24 02:04:31;;;;;;;0.57;0.50;;;;;;;6.88;100.00;98201.19;5110724;28;20517;-63
2022/11/24 02:07:01;;;;;;;0.40;0.40;;;;;;;6.92;100.00;98196.72;5110295;28;20626;-63
2022/11/24 02:09:32;;;;;;;0.60;0.60;;;;;;;6.93;100.00;98194.06;5110627;28;20220;-59
2022/11/24 02:12:02;;;;;;;0.43;0.43;;;;;;;7.02;100.00;98198.50;5110698;28;20622;-63
2022/11/24 02:14:29;;;;;;;1.37;0.73;;;;;;;6.99;100.00;98201.25;5110648;28;20604;-62
2022/11/24 02:16:56;;;;;;;0.30;0.30;;;;;;;7.07;100.00;98202.41;5110170;28;20695;-62
2022/11/24 02:19:36;;;;;;;0.70;0.70;;;;;;;7.08;100.00;98206.59;5110629;28;20228;-60
2022/11/24 02:22:04;;;;;;;0.73;0.37;;;;;;;7.11;100.00;98201.28;5110398;28;20188;-60
2022/11/24 02:24:40;;;;;;;0.73;0.73;;;;;;;7.15;100.00;98213.66;5110221;28;20683;-60
2022/11/24 02:27:10;;;;;;;0.50;0.50;;;;;;;7.23;100.00;98215.66;5110043;28;20966;-59
2022/11/24 02:29:37;;;;;;;1.07;0.80;;;;;;;7.18;100.00;98217.72;5110134;28;20607;-59
2022/11/24 02:32:07;;;;;;;0.10;0.10;;;;;;;7.13;100.00;98209.63;5110114;28;20228;-60
2022/11/24 02:34:34;;;;;;;0.73;0.73;;;;;;;7.11;100.00;98211.47;5110192;28;20263;-60
2022/11/24 02:37:01;;;;;;;0.37;0.33;;;;;;;7.13;100.00;98209.63;5110063;28;20201;-59
2022/11/24 02:39:28;;;;;;;0.67;0.67;;;;;;;7.11;100.00;98221.63;5110586;28;20221;-62
2022/11/24 02:41:59;;;;;;;0.30;0.30;;;;;;;7.09;100.00;98214.09;5110019;28;20262;-59
2022/11/24 02:44:31;;;;;;;0.20;0.20;;;;;;;7.12;100.00;98218.16;5110018;28;20321;-60
2022/11/24 02:47:06;;;;;;;0.70;0.70;;;;;;;7.16;100.00;98215.28;5109929;28;20233;-59
2022/11/24 02:49:33;;;;;;;0.30;0.30;;;;;;;7.18;100.00;98220.25;5109891;28;20670;-60
2022/11/24 02:52:00;;;;;;;0.47;0.47;;;;;;;7.16;100.00;98222.13;5110105;28;20208;-63
2022/11/24 02:54:27;;;;;;;1.37;0.70;;;;;;;7.09;100.00;98223.47;5109860;28;20578;-59
2022/11/24 02:56:54;;;;;;;0.63;0.43;;;;;;;7.12;100.00;98223.25;5109776;28;20201;-59
2022/11/24 02:59:21;;;;;;;0.73;0.73;;;;;;;6.98;100.00;98217.44;5109771;28;20305;-63
2022/11/24 03:01:49;;;;;;;0.27;0.27;;;;;;;7.03;100.00;98228.06;5109972;28;20669;-63
2022/11/24 03:04:16;;;;;;;0.37;0.30;;;;;;;7.08;100.00;98237.09;5109786;28;20217;-63
2022/11/24 03:06:43;;;;;;;0.53;0.53;;;;;;;6.95;100.00;98230.34;5109909;28;20709;-59
2022/11/24 03:09:10;;;;;;;0.50;0.50;;;;;;;6.86;100.00;98223.34;5109879;28;20228;-63
2022/11/24 03:11:38;;;;;;;0.47;0.47;;;;;;;6.75;100.00;98230.94;5109791;28;20681;-62
2022/11/24 03:14:05;;;;;;;0.13;0.13;;;;;;;6.74;100.00;98231.84;5110041;28;20217;-63
2022/11/24 03:16:32;;;;;;;0.60;0.53;;;;;;;6.75;100.00;98225.88;5109577;28;20462;-63
2022/11/24 03:19:01;;;;;;;1.70;1.13;;;;;;;6.90;100.00;98229.06;5109802;28;20602;-60
2022/11/24 03:21:28;;;;;;;0.97;0.50;;;;;;;6.80;100.00;98228.88;5109576;28;20189;-63
2022/11/24 03:23:54;;;;;;;0.57;0.57;;;;;;;6.72;100.00;98231.13;5109864;28;20225;-62
2022/11/24 03:26:24;;;;;;;0.20;0.20;;;;;;;6.81;100.00;98230.53;5109437;28;20194;-59
2022/11/24 03:28:54;;;;;;;0.53;0.43;;;;;;;6.83;100.00;98232.94;5109969;28;20270;-59
2022/11/24 03:31:21;;;;;;;0.77;0.77;;;;;;;6.80;100.00;98239.84;5110121;28;20289;-59
2022/11/24 03:33:48;;;;;;;0.50;0.37;;;;;;;6.67;100.00;98238.28;5109997;28;20716;-63
2022/11/24 03:36:16;;;;;;;0.63;0.63;;;;;;;6.71;100.00;98244.78;5109490;28;20194;-60
2022/11/24 03:38:43;;;;;;;0.23;0.23;;;;;;;6.62;100.00;98240.34;5110938;28;20274;-59
2022/11/24 03:41:10;;;;;;;0.40;0.40;;;;;;;6.54;100.00;98241.69;5113243;28;20202;-63
2022/11/24 03:43:37;;;;;;;0.30;0.30;;;;;;;6.56;100.00;98244.91;5113352;28;20290;-62
2022/11/24 03:46:04;;;;;;;0.37;0.37;;;;;;;6.59;100.00;98251.50;5113150;28;20208;-62
2022/11/24 03:48:31;;;;;;;0.67;0.57;;;;;;;6.37;100.00;98242.03;5113244;28;20244;-62
2022/11/24 03:50:59;;;;;;;0.13;0.13;;;;;;;6.32;100.00;98260.13;5113089;28;20246;-59
2022/11/24 03:53:29;;;;;;;0.30;0.30;;;;;;;6.28;100.00;98258.72;5113066;28;20217;-59
2022/11/24 03:55:57;;;;;;;0.20;0.20;;;;;;;6.36;100.00;98265.78;5112975;28;20208;-62
2022/11/24 03:58:24;;;;;;;1.83;1.07;;;;;;;6.33;100.00;98258.38;5112628;28;20228;-59
2022/11/24 04:00:52;;;;;;;1.50;0.73;;;;;;;6.34;100.00;98263.38;5113021;28;20216;-63
2022/11/24 04:03:20;;;;;;;0.30;0.30;;;;;;;6.31;100.00;98265.28;5112644;28;20709;-61
2022/11/24 04:05:47;;;;;;;0.20;0.20;;;;;;;6.42;100.00;98260.28;5112976;27;20201;-60
2022/11/24 04:08:15;;;;;;;1.17;0.63;;;;;;;6.25;100.00;98273.31;5112880;28;20313;-59
2022/11/24 04:10:43;;;;;;;0.67;0.57;;;;;;;6.22;100.00;98263.38;5112836;28;20258;-62
2022/11/24 04:13:14;;;;;;;0.10;0.10;;;;;;;6.17;100.00;98260.31;5112679;28;20633;-62
2022/11/24 04:15:42;;;;;;;0.53;0.53;;;;;;;6.21;100.00;98266.84;5112833;28;20314;-59
2022/11/24 04:18:10;;;;;;;5.53;1.10;;;;;;;6.24;100.00;98266.63;5112471;28;20655;-62
2022/11/24 04:20:37;;;;;;;2.90;0.80;;;;;;;6.27;100.00;98274.03;5113075;28;20205;-62
2022/11/24 04:23:04;;;;;;;3.77;0.60;;;;;;;6.10;100.00;98263.28;5112577;28;20221;-62
2022/11/24 04:25:31;;;;;;;0.50;0.50;;;;;;;6.03;100.00;98269.69;5112623;27;20197;-59
2022/11/24 04:27:59;;;;;;;0.63;0.50;;;;;;;6.07;100.00;98266.03;5112023;28;20713;-59
2022/11/24 04:30:28;;;;;;;1.03;0.47;;;;;;;6.08;100.00;98280.34;5112313;28;20696;-63
2022/11/24 04:32:55;;;;;;;0.20;0.20;;;;;;;6.16;100.00;98279.00;5112383;28;20201;-62
2022/11/24 04:35:22;;;;;;;0.87;0.87;;;;;;;6.16;100.00;98282.34;5112845;28;20193;-62
2022/11/24 04:37:49;;;;;;;0.80;0.53;;;;;;;6.08;100.00;98282.91;5111984;28;20216;-62
2022/11/24 04:40:17;;;;;;;0.73;0.60;;;;;;;6.04;100.00;98286.53;5112510;28;20193;-62
2022/11/24 04:42:51;;;;;;;1.10;0.80;;;;;;;6.06;100.00;98294.84;5111914;28;20713;-62
2022/11/24 04:45:19;;;;;;;0.80;0.67;;;;;;;6.02;100.00;98300.22;5112173;28;20197;-59
2022/11/24 04:47:46;;;;;;;0.90;0.90;;;;;;;6.09;100.00;98294.66;5111844;28;20708;-62
2022/11/24 04:50:13;;;;;;;0.30;0.30;;;;;;;6.00;100.00;98300.34;5111754;28;20212;-62
2022/11/24 04:52:40;;;;;;;0.17;0.17;;;;;;;5.98;100.00;98302.16;5111756;28;20198;-59
2022/11/24 04:55:08;;;;;;;0.50;0.20;;;;;;;5.96;100.00;98309.06;5111920;28;20201;-59
2022/11/24 04:57:35;;;;;;;0.37;0.37;;;;;;;5.95;100.00;98315.06;5111842;28;20201;-62
2022/11/24 05:00:02;;;;;;;0.70;0.70;;;;;;;5.92;100.00;98322.84;5111434;28;21038;-60
2022/11/24 05:02:30;;;;;;;0.40;0.40;;;;;;;5.95;100.00;98320.13;5111494;28;20204;-62
2022/11/24 05:04:57;;;;;;;3.20;0.63;;;;;;;5.88;100.00;98321.41;5111575;27;20218;-62
2022/11/24 05:07:23;;;;;;;0.40;0.40;;;;;;;5.92;100.00;98325.38;5111729;28;20232;-62
2022/11/24 05:12:34;;;;;;;0.63;0.23;;;;;;;5.84;100.00;98319.97;5111703;28;20220;-60
2022/11/24 05:15:02;;;;;;;0.70;0.70;;;;;;;5.83;100.00;98323.44;5111342;28;20224;-60
2022/11/24 05:17:32;;;;;;;0.50;0.43;;;;;;;5.87;100.00;98330.72;5111360;28;20435;-62
2022/11/24 05:19:59;;;;;;;0.60;0.60;;;;;;;5.89;100.00;98334.00;5111181;28;20753;-59
2022/11/24 05:22:28;;;;;;;0.13;0.13;;;;;;;5.92;100.00;98332.19;5111383;28;20204;-60
2022/11/24 05:24:54;;;;;;;0.37;0.33;;;;;;;5.85;100.00;98339.38;5111087;28;20213;-60
2022/11/24 05:27:21;;;;;;;0.40;0.40;;;;;;;5.88;100.00;98341.72;5111023;28;20613;-59
2022/11/24 05:29:48;;;;;;;0.30;0.27;;;;;;;5.89;100.00;98344.13;5111288;28;20217;-59
2022/11/24 05:32:15;;;;;;;0.43;0.43;;;;;;;5.88;100.00;98357.75;5110985;28;20208;-59
2022/11/24 05:34:43;;;;;;;0.40;0.30;;;;;;;5.92;100.00;98353.28;5111072;27;20700;-59
2022/11/24 05:37:10;;;;;;;0.20;0.20;;;;;;;5.96;100.00;98359.78;5111078;28;20201;-59
2022/11/24 05:39:38;;;;;;;0.63;0.63;;;;;;;5.97;100.00;98356.38;5111113;28;20221;-59
2022/11/24 05:44:47;;;;;;;1.40;0.47;;;;;;;5.90;100.00;98360.16;5110805;28;20723;-63
2022/11/24 05:47:14;;;;;;;0.97;0.97;;;;;;;5.89;100.00;98368.69;5110638;28;20201;-62
2022/11/24 05:49:41;;;;;;;0.17;0.17;;;;;;;5.96;100.00;98359.78;5111002;28;20593;-59
2022/11/24 05:52:09;;;;;;;0.57;0.57;;;;;;;5.93;100.00;98357.47;5110718;28;20205;-59
2022/11/24 05:54:36;;;;;;;0.70;0.70;;;;;;;5.94;100.00;98361.63;5110849;28;20248;-62
2022/11/24 05:57:03;;;;;;;0.60;0.60;;;;;;;5.98;100.00;98369.84;5110839;28;20634;-59
2022/11/24 05:59:29;;;;;;;0.77;0.77;;;;;;;5.97;100.00;98366.50;5110503;28;20233;-59
2022/11/24 06:01:56;;;;;;;0.87;0.83;;;;;;;5.95;100.00;98373.41;5109938;28;20204;-62
2022/11/24 06:04:23;;;;;;;0.30;0.30;;;;;;;5.96;100.00;98375.03;5110825;28;20274;-59
2022/11/24 06:06:50;;;;;;;0.30;0.30;;;;;;;5.98;100.00;98383.34;5110379;28;20197;-59
2022/11/24 06:09:18;;;;;;;0.93;0.70;;;;;;;6.01;100.00;98390.75;5110688;28;20236;-62
2022/11/24 06:11:46;;;;;;;1.67;0.83;;;;;;;6.04;100.00;98393.09;5110533;28;20197;-60
2022/11/24 06:14:13;;;;;;;0.20;0.20;;;;;;;6.07;100.00;98394.63;5110659;28;20229;-60
2022/11/24 06:16:40;;;;;;;0.50;0.50;;;;;;;6.07;100.00;98381.94;5110112;28;20200;-63
2022/11/24 06:19:07;;;;;;;1.23;0.80;;;;;;;6.02;100.00;98389.03;5110839;28;20285;-59
2022/11/24 06:21:34;;;;;;;0.40;0.40;;;;;;;5.96;100.00;98395.31;5110305;28;20204;-62
2022/11/24 06:24:01;;;;;;;1.67;1.13;;;;;;;5.99;100.00;98399.38;5110254;28;20649;-59
2022/11/24 06:26:29;;;;;;;0.73;0.73;;;;;;;6.02;100.00;98406.78;5110207;28;20224;-59
2022/11/24 06:28:56;;;;;;;3.20;0.73;;;;;;;5.98;100.00;98421.41;5110008;28;20236;-59
2022/11/24 06:31:23;;;;;;;0.73;0.60;;;;;;;6.04;100.00;98423.56;5110349;28;20189;-62
2022/11/24 06:33:49;;;;;;;0.20;0.20;;;;;;;6.03;100.00;98432.09;5110248;28;20224;-62
2022/11/24 06:36:16;;;;;;;0.40;0.40;;;;;;;6.04;100.00;98436.25;5110195;28;20200;-62
2022/11/24 06:38:43;;;;;;;0.30;0.27;;;;;;;6.06;100.00;98436.97;5110211;28;20221;-62
2022/11/24 06:41:12;;;;;;;0.83;0.73;;;;;;;6.08;100.00;98440.22;5110130;28;20259;-62
2022/11/24 06:43:40;;;;;;;2.43;0.50;;;;;;;6.12;100.00;98446.72;5110137;28;20728;-59
2022/11/24 06:46:08;;;;;;;0.77;0.60;;;;;;;6.18;100.00;98454.84;5110586;28;20657;-59
2022/11/24 06:48:34;;;;;;;0.73;0.53;;;;;;;6.20;100.00;98448.78;5110045;28;20739;-62
2022/11/24 06:51:02;;;;;;;0.40;0.40;;;;;;;6.09;100.00;98457.06;5109962;28;20254;-59
2022/11/24 06:53:30;;;;;;;0.30;0.30;;;;;;;6.15;100.00;98460.13;5109939;28;20653;-62
2022/11/24 06:55:59;;;;;;;0.13;0.13;;;;;;;6.15;100.00;98462.66;5109967;28;20197;-59
2022/11/24 06:58:26;;;;;;;0.23;0.23;;;;;;;6.12;100.00;98467.03;5109991;28;20227;-62
2022/11/24 07:00:54;;;;;;;0.47;0.37;;;;;;;6.15;100.00;98470.28;5109727;28;20466;-59
2022/11/24 07:03:21;;;;;;;1.70;0.60;;;;;;;6.13;100.00;98473.72;5110079;28;20266;-61
2022/11/24 07:05:47;;;;;;;0.60;0.60;;;;;;;6.21;100.00;98474.97;5110058;28;20197;-59
2022/11/24 07:08:14;;;;;;;0.53;0.40;;;;;;;6.25;100.00;98481.47;5109845;28;20225;-62
2022/11/24 07:10:41;;;;;;;0.53;0.33;;;;;;;6.26;100.00;98486.44;5109878;28;20208;-63
2022/11/24 07:13:08;;;;;;;0.60;0.27;;;;;;;6.22;100.00;98479.13;5109732;28;20213;-62
2022/11/24 07:15:35;;;;;;;0.10;0.10;;;;;;;6.27;100.00;98490.59;5113860;28;20227;-62
2022/11/24 07:18:03;;;;;;;0.10;0.10;;;;;;;6.27;100.00;98485.53;5113700;28;20231;-60
2022/11/24 07:20:30;;;;;;;0.40;0.40;;;;;;;6.31;100.00;98492.06;5113929;28;20204;-60
2022/11/24 07:22:57;;;;;;;2.00;0.53;;;;;;;6.31;100.00;98488.69;5113774;28;20198;-62
2022/11/24 07:25:24;;;;;;;0.70;0.70;;;;;;;6.38;100.00;98496.75;5113542;28;20201;-63
2022/11/24 07:27:56;;;;;;;0.23;0.23;;;;;;;6.41;100.00;98494.00;5113389;28;20244;-60
2022/11/24 07:30:23;;;;;;;0.50;0.50;;;;;;;6.44;100.00;98492.06;5113488;28;20730;-62
2022/11/24 07:32:50;;;;;;;0.90;0.30;;;;;;;6.35;100.00;98498.56;5113300;28;20204;-63
2022/11/24 07:35:18;;;;;;;0.43;0.43;;;;;;;6.38;100.00;98497.53;5113320;28;20197;-63
2022/11/24 07:37:44;;;;;;;1.00;0.93;;;;;;;6.40;100.00;98500.81;5113491;28;20197;-63
2022/11/24 07:40:12;;;;;;;0.40;0.40;;;;;;;6.46;100.00;98499.59;5113492;28;20254;-59
2022/11/24 07:42:39;;;;;;;0.50;0.50;;;;;;;6.48;100.00;98503.63;5113186;28;20715;-59
2022/11/24 07:45:06;;;;;;;0.60;0.60;;;;;;;6.43;100.00;98502.31;5113315;28;20217;-63
2022/11/24 07:47:33;;;;;;;1.40;0.27;;;;;;;6.45;100.00;98503.84;5113162;28;20197;-62
2022/11/24 07:50:00;;;;;;;1.10;0.60;;;;;;;6.51;100.00;98498.34;5113328;28;20777;-62
2022/11/24 07:52:28;;;;;;;0.67;0.67;;;;;;;6.50;100.00;98499.28;5112920;28;20201;-59
2022/11/24 07:54:55;;;;;;;0.63;0.63;;;;;;;6.48;100.00;98498.56;5113116;28;20213;-62
2022/11/24 07:57:22;;;;;;;0.60;0.60;;;;;;;6.48;100.00;98508.72;5112819;28;20197;-59
2022/11/24 07:59:49;;;;;;;1.03;1.03;;;;;;;6.46;100.00;98505.47;5112955;28;20225;-63
2022/11/24 08:02:15;;;;;;;0.93;0.57;;;;;;;6.43;100.00;98515.84;5112720;28;20200;-63
2022/11/24 08:04:42;;;;;;;1.43;0.90;;;;;;;6.50;100.00;98516.25;5112798;28;20221;-62
2022/11/24 08:07:09;;;;;;;0.70;0.70;;;;;;;6.55;100.00;98520.13;5112816;28;20219;-62
2022/11/24 08:09:37;;;;;;;0.30;0.30;;;;;;;6.34;100.00;98526.56;5112606;28;20240;-59
2022/11/24 08:12:04;;;;;;;0.30;0.30;;;;;;;6.43;100.00;98531.06;5112630;28;20201;-62
2022/11/24 08:14:31;;;;;;;0.70;0.70;;;;;;;6.41;100.00;98527.81;5112588;28;20339;-60
2022/11/24 08:16:58;;;;;;;0.33;0.33;;;;;;;6.46;100.00;98535.97;5112356;28;20193;-59
2022/11/24 08:19:24;;;;;;;0.63;0.63;;;;;;;6.45;100.00;98539.38;5112484;28;20689;-62
2022/11/24 08:21:51;;;;;;;0.57;0.57;;;;;;;6.33;100.00;98540.19;5112418;28;20206;-59
2022/11/24 08:24:18;;;;;;;0.07;0.07;;;;;;;6.37;100.00;98540.78;5111873;28;20220;-62
2022/11/24 08:26:46;;;;;;;0.10;0.10;;;;;;;6.24;100.00;98546.66;5112474;28;20633;-61
2022/11/24 08:29:13;;;;;;;0.00;0.00;;;;;;;6.33;100.00;98545.25;5112687;28;20237;-62
2022/11/24 08:31:40;;;;;;;0.10;0.10;;;;;;;6.34;100.00;98551.94;5112469;28;20197;-62
2022/11/24 08:34:07;;;;;;;0.30;0.23;;;;;;;6.32;100.00;98553.78;5112392;28;20229;-59
2022/11/24 08:36:34;;;;;;;0.20;0.20;;;;;;;6.35;100.00;98548.53;5112223;27;20204;-59
2022/11/24 08:39:01;;;;;;;0.53;0.20;;;;;;;6.35;100.00;98553.59;5112397;28;20308;-62
2022/11/24 08:41:29;;;;;;;0.20;0.20;;;;;;;6.33;100.00;98556.22;5112245;28;20201;-59
2022/11/24 08:43:58;;;;;;;0.03;0.03;;;;;;;6.26;100.00;98555.00;5112167;28;20224;-59
2022/11/24 08:46:24;;;;;;;0.20;0.20;;;;;;;6.31;100.00;98564.84;5112005;27;20193;-59
2022/11/24 08:48:53;;;;;;;0.20;0.20;;;;;;;6.29;100.00;98559.88;5111821;27;20229;-62
2022/11/24 08:51:22;;;;;;;0.30;0.30;;;;;;;6.28;100.00;98567.56;5112152;28;20560;-62
2022/11/24 08:53:49;;;;;;;1.60;0.83;;;;;;;6.23;100.00;98565.34;5111915;28;20220;-59
2022/11/24 08:56:15;;;;;;;0.43;0.43;;;;;;;6.27;100.00;98555.81;5111927;28;20197;-62
2022/11/24 08:58:42;;;;;;;0.10;0.10;;;;;;;6.23;100.00;98567.06;5111618;28;20221;-61
2022/11/24 09:01:13;;;;;;;0.43;0.43;;;;;;;6.43;100.00;98560.72;5111761;28;20197;-59
2022/11/24 09:03:40;;;;;;;0.10;0.10;;;;;;;6.32;100.00;98559.69;5111620;28;20221;-59
2022/11/24 09:06:07;;;;;;;0.20;0.20;;;;;;;6.39;100.00;98570.25;5111769;28;20210;-61
2022/11/24 09:08:34;;;;;;;0.10;0.10;;;;;;;6.38;100.00;98568.63;5111396;27;20221;-62
2022/11/24 09:11:01;;;;;;;0.10;0.10;;;;;;;6.35;100.00;98578.97;5111601;28;20750;-61
2022/11/24 09:13:29;;;;;;;0.40;0.40;;;;;;;6.49;100.00;98571.31;5111518;28;20220;-59
2022/11/24 09:15:56;;;;;;;0.10;0.10;;;;;;;6.61;100.00;98568.91;5111451;28;20278;-61
2022/11/24 09:18:24;;;;;;;0.73;0.57;;;;;;;6.44;100.00;98563.16;5111116;27;20217;-59
2022/11/24 09:20:51;;;;;;;0.20;0.20;;;;;;;6.57;100.00;98566.56;5111172;28;20669;-59
2022/11/24 09:23:17;;;;;;;1.27;0.33;;;;;;;6.63;100.00;98564.50;5111214;28;20747;-59
2022/11/24 09:25:44;;;;;;;0.20;0.20;;;;;;;6.66;100.00;98556.69;5111266;28;20254;-61
2022/11/24 09:28:11;;;;;;;0.10;0.10;;;;;;;6.74;100.00;98554.47;5111244;28;20213;-59
2022/11/24 09:30:38;;;;;;;0.20;0.20;;;;;;;6.69;100.00;98561.56;5111427;28;20577;-59
2022/11/24 09:33:05;;;;;;;0.40;0.20;;;;;;;6.79;100.00;98552.47;5111320;27;20801;-59
2022/11/24 09:35:37;;;;;;;0.30;0.30;;;;;;;6.70;100.00;98560.69;5110911;28;20729;-59
2022/11/24 09:38:04;;;;;;;0.20;0.20;;;;;;;6.63;100.00;98555.16;5110471;28;20296;-59
2022/11/24 09:40:32;;;;;;;0.20;0.20;;;;;;;6.69;100.00;98556.50;5111115;28;20205;-59
2022/11/24 09:43:07;;;;;;;0.27;0.27;;;;;;;6.67;100.00;98565.97;5110853;28;20231;-61
2022/11/24 09:45:55;;;;;;;0.70;0.37;;;;;;;6.84;100.00;98565.69;5111294;28;20197;-59
2022/11/24 09:48:26;;;;;;;0.73;0.63;;;;;;;6.83;100.00;98573.41;5111045;28;20636;-61
2022/11/24 09:50:58;;;;;;;0.30;0.30;;;;;;;6.82;100.00;98581.94;5111023;28;20204;-58
2022/11/24 09:53:32;;;;;;;0.30;0.30;;;;;;;6.86;100.00;98575.72;5110875;28;20214;-58
2022/11/24 09:56:03;;;;;;;1.20;1.20;;;;;;;6.83;100.00;98579.28;5110791;28;20197;-62
2022/11/24 09:58:39;;;;;;;0.63;0.63;;;;;;;6.78;100.00;98581.34;5110737;28;20705;-61
2022/11/24 10:01:12;;;;;;;0.33;0.33;;;;;;;6.94;100.00;98578.59;5110698;28;20204;-59
2022/11/24 10:03:43;;;;;;;1.57;0.67;;;;;;;6.99;100.00;98574.84;5110649;28;20221;-61
2022/11/24 10:06:21;;;;;;;0.20;0.20;;;;;;;6.95;100.00;98581.06;5110718;28;20509;-59
2022/11/24 10:09:11;;;;;;;0.30;0.30;;;;;;;6.99;99.95;98579.91;5110534;28;20228;-61
2022/11/24 10:11:45;;;;;;;0.30;0.30;;;;;;;7.14;100.00;98584.91;5110430;28;20209;-61
2022/11/24 10:14:42;;;;;;;0.20;0.20;;;;;;;7.08;98.48;98583.59;5110591;28;20712;-61
2022/11/24 10:17:17;;;;;;;0.20;0.20;;;;;;;7.08;98.07;98582.78;5110458;28;20591;-59
2022/11/24 10:19:49;;;;;;;0.40;0.40;;;;;;;7.12;97.86;98581.66;5110342;28;20654;-61
2022/11/24 10:22:31;;;;;;;0.20;0.20;;;;;;;7.32;97.19;98575.25;5110334;28;20205;-59
2022/11/24 10:25:20;;;;;;;0.27;0.27;;;;;;;7.77;97.29;98566.22;5110321;28;20225;-62
2022/11/24 10:27:54;;;;;;;0.47;0.47;;;;;;;7.57;94.48;98571.88;5110348;28;20687;-61
2022/11/24 10:30:22;;;;;;;0.20;0.20;;;;;;;7.90;97.34;98576.34;5110255;28;20233;-59
2022/11/24 10:32:52;;;;;;;0.20;0.20;;;;;;;7.90;95.23;98571.25;5109843;28;20212;-61
2022/11/24 10:35:22;;;;;;;0.20;0.20;;;;;;;7.82;93.39;98569.25;5110302;28;20197;-59
2022/11/24 10:38:02;;;;;;;0.43;0.30;;;;;;;8.05;93.06;98572.72;5109954;28;20202;-61
2022/11/24 10:40:36;;;;;;;0.40;0.30;;;;;;;8.34;93.02;98570.69;5110185;28;20730;-62
2022/11/24 10:43:09;;;;;;;0.67;0.50;;;;;;;8.23;91.04;98573.19;5110201;28;20306;-59
2022/11/24 10:45:38;;;;;;;0.30;0.30;;;;;;;8.32;90.82;98572.53;5110325;28;20208;-61
2022/11/24 10:48:11;;;;;;;0.27;0.27;;;;;;;8.24;90.17;98574.81;5111750;28;20221;-59
2022/11/24 10:50:41;;;;;;;0.50;0.50;;;;;;;8.18;90.25;98577.00;5114282;28;20232;-62
2022/11/24 10:53:16;;;;;;;0.03;0.03;;;;;;;8.94;89.95;98583.41;5114255;28;20225;-61
2022/11/24 10:56:03;;;;;;;0.50;0.50;;;;;;;9.77;85.69;98577.19;5114604;28;20211;-62
2022/11/24 10:58:31;;;;;;;0.50;0.30;;;;;;;10.33;85.37;98577.91;5114160;28;20220;-59
2022/11/24 11:01:00;;;;;;;1.13;0.70;;;;;;;10.24;81.94;98582.88;5113787;28;20217;-63
2022/11/24 11:03:28;;;;;;;0.50;0.30;;;;;;;9.81;83.76;98583.69;5114379;28;20216;-59
2022/11/24 11:06:00;;;;;;;0.10;0.10;;;;;;;9.59;85.49;98590.41;5114073;27;20211;-62
2022/11/24 11:08:29;;;;;;;0.13;0.13;;;;;;;9.27;84.97;98580.09;5113991;28;20654;-61
2022/11/24 11:11:19;;;;;;;0.10;0.10;;;;;;;9.10;86.90;98583.91;5114067;28;20773;-61
2022/11/24 11:13:55;;;;;;;0.87;0.87;;;;;;;9.04;87.40;98584.34;5113751;28;20296;-62
2022/11/24 11:16:30;;;;;;;0.20;0.20;;;;;;;8.90;89.04;98582.00;5113707;28;20292;-62
2022/11/24 11:18:57;;;;;;;0.40;0.40;;;;;;;8.72;88.31;98584.97;5114027;28;20232;-59
2022/11/24 11:21:31;;;;;;;0.40;0.40;;;;;;;8.51;88.62;98581.44;5113873;28;20198;-62
2022/11/24 11:24:00;;;;;;;0.93;0.40;;;;;;;8.42;88.89;98584.66;5113590;28;20240;-62
2022/11/24 11:26:35;;;;;;;0.83;0.47;;;;;;;8.38;87.48;98592.50;5113677;28;20197;-59
2022/11/24 11:29:13;;;;;;;0.80;0.80;;;;;;;8.23;87.63;98593.56;5113369;28;20296;-61
2022/11/24 11:31:41;;;;;;;0.60;0.60;;;;;;;8.02;87.49;98590.78;5113347;27;20204;-62
2022/11/24 11:34:15;;;;;;;0.93;0.60;;;;;;;7.90;87.52;98577.16;5113714;28;20222;-62
2022/11/24 11:36:45;;;;;;;0.90;0.70;;;;;;;7.96;88.76;98575.13;5113473;28;20193;-61
2022/11/24 11:39:23;;;;;;;0.73;0.50;;;;;;;7.81;87.76;98582.09;5113725;28;20260;-59
2022/11/24 11:41:52;;;;;;;0.07;0.07;;;;;;;7.75;88.05;98578.22;5113312;28;20280;-59
2022/11/24 11:44:29;;;;;;;0.33;0.33;;;;;;;7.72;88.73;98579.25;5113235;28;20221;-59
2022/11/24 11:46:58;;;;;;;0.93;0.67;;;;;;;7.82;89.71;98568.44;5113596;28;20708;-59